M I D A S
Marine Information and Data Acquisition System
Tripno 715 of the Zeeleeuw from 2004-05-12 06:32:25 to 2004-05-12 16:00:46
Back to CruiseResearch ActivitiesStationsMapUnderway DataData graphs

EquipmentUnitsComment
TimeDGPSUTC
LatitudeDGPSDM.mWGS84
LongitudeDGPSDM.mWGS84
HeadingGyrodeg 
SOGDGPSknotsSpeed over ground
COGDGPSdegCourse over ground
DepthEcho soundermeters200 kHz
Missing or incorrect values are displayed as -999
Navigation data collected by the RV Zeeleeuw from 2004-05-12 06:32:25 to 2004-05-12 16:00:46
                                                                                    Next 1000 lines
Time Latitude Longitude Heading SOG COG Depth
2004-05-12 06:32:33 51°13.598 2°56.098 117.9 0.1 216 9.4
2004-05-12 06:32:37 51°13.598 2°56.098 116.7 0.2 263 9.5
2004-05-12 06:32:42 51°13.598 2°56.097 115.8 0.5 282 9.5
2004-05-12 06:32:47 51°13.598 2°56.095 115.2 1 285 9.5
2004-05-12 06:32:53 51°13.599 2°56.091 115.1 1.4 289 9.7
2004-05-12 06:32:57 51°13.6 2°56.088 115.4 1.9 290 10
2004-05-12 06:33:03 51°13.601 2°56.083 116 2.2 291 6.1
2004-05-12 06:33:07 51°13.602 2°56.078 116.8 2.7 292 -999
2004-05-12 06:33:14 51°13.604 2°56.07 117.2 3 293 -999
2004-05-12 06:33:18 51°13.606 2°56.064 117.5 3.3 293 -999
2004-05-12 06:33:23 51°13.608 2°56.057 117.7 3.5 293 -999
2004-05-12 06:33:28 51°13.609 2°56.049 117.9 3.7 294 -999
2004-05-12 06:33:33 51°13.612 2°56.041 118.2 4.1 294 -999
2004-05-12 06:33:38 51°13.614 2°56.033 118.4 4.2 294 -999
2004-05-12 06:33:43 51°13.616 2°56.024 118.8 4.4 293 -999
2004-05-12 06:33:48 51°13.619 2°56.014 119.3 4.5 294 -999
2004-05-12 06:33:53 51°13.622 2°56.005 120 4.7 295 -999
2004-05-12 06:33:58 51°13.625 2°55.995 120.8 4.8 296 -999
2004-05-12 06:34:03 51°13.627 2°55.986 121.7 4.9 296 -999
2004-05-12 06:34:08 51°13.631 2°55.976 122.6 4.9 297 -999
2004-05-12 06:34:13 51°13.634 2°55.966 123.5 5 298 -999
2004-05-12 06:34:18 51°13.637 2°55.956 124.2 5 298 -999
2004-05-12 06:34:23 51°13.64 2°55.947 124.8 5 299 -999
2004-05-12 06:34:28 51°13.644 2°55.937 125.4 5 299 -999
2004-05-12 06:34:33 51°13.647 2°55.928 125.9 5 301 -999
2004-05-12 06:34:38 51°13.651 2°55.918 126.5 5 301 -999
2004-05-12 06:34:43 51°13.654 2°55.909 127.1 5 302 -999
2004-05-12 06:34:48 51°13.658 2°55.899 127.5 5 303 -999
2004-05-12 06:34:53 51°13.662 2°55.89 127.6 5 303 -999
2004-05-12 06:34:58 51°13.666 2°55.881 127.4 5.1 303 -999
2004-05-12 06:35:03 51°13.669 2°55.871 126.9 5 302 -999
2004-05-12 06:35:07 51°13.672 2°55.863 126.1 5.1 301 -999
2004-05-12 06:35:14 51°13.677 2°55.85 124.8 5.1 301 -999
2004-05-12 06:35:18 51°13.68 2°55.842 123.8 5.1 300 -999
2004-05-12 06:35:23 51°13.683 2°55.832 122 5.1 298 -999
2004-05-12 06:35:27 51°13.686 2°55.824 120.3 5.1 296 -999
2004-05-12 06:35:34 51°13.69 2°55.81 118.5 5 295 -999
2004-05-12 06:35:38 51°13.692 2°55.802 117 4.9 294 -999
2004-05-12 06:35:43 51°13.695 2°55.793 116.4 4.6 293 -999
2004-05-12 06:35:48 51°13.697 2°55.785 115.6 4.1 293 -999
2004-05-12 06:35:53 51°13.698 2°55.779 114.2 2.9 292 15.2
2004-05-12 06:35:58 51°13.699 2°55.774 112.5 2.2 293 15.4
2004-05-12 06:36:02 51°13.7 2°55.772 110.1 1.6 292 14.9
2004-05-12 06:36:07 51°13.701 2°55.77 107.6 0.8 305 15.4
2004-05-12 06:36:13 51°13.701 2°55.77 103.6 0.5 312 15.2
2004-05-12 06:36:18 51°13.701 2°55.771 99 0.6 60 15.5
2004-05-12 06:36:22 51°13.702 2°55.773 93.6 1 70 15.6
2004-05-12 06:36:27 51°13.702 2°55.776 87.3 1.3 74 15.4
2004-05-12 06:36:33 51°13.703 2°55.779 81.3 1.3 66 15.3
2004-05-12 06:36:37 51°13.703 2°55.78 78.4 0.5 81 15.2
2004-05-12 06:36:43 51°13.703 2°55.779 76.4 0.1 289 15.2
2004-05-12 06:36:47 51°13.703 2°55.778 74.9 0.8 238 15.3
2004-05-12 06:36:53 51°13.702 2°55.775 74.1 1 245 15.3
2004-05-12 06:36:58 51°13.701 2°55.772 73.8 1.7 245 15.2
2004-05-12 06:37:02 51°13.7 2°55.768 73.8 2.1 250 15.4
2004-05-12 06:37:08 51°13.699 2°55.762 74.1 2.5 249 -999
2004-05-12 06:37:14 51°13.697 2°55.755 74.8 2.5 252 -999
2004-05-12 06:37:18 51°13.697 2°55.752 76.2 2.2 251 -999
2004-05-12 06:37:23 51°13.696 2°55.749 76.7 1.7 253 15.6
2004-05-12 06:37:27 51°13.696 2°55.748 75.9 1 248 -999
2004-05-12 06:37:33 51°13.696 2°55.747 73 0.2 289 15.3
2004-05-12 06:37:38 51°13.696 2°55.748 69.8 0.5 50 15.4
2004-05-12 06:37:41 51°13.697 2°55.749 65.3 0.9 47 15.5
2004-05-12 06:37:47 51°13.698 2°55.752 60.2 1.4 47 -999
2004-05-12 06:37:54 51°13.701 2°55.755 53.5 1.9 41 -999
2004-05-12 06:37:58 51°13.703 2°55.758 47.8 2.1 46 15.5
2004-05-12 06:38:03 51°13.705 2°55.76 43.4 2 33 -999
2004-05-12 06:38:07 51°13.706 2°55.762 40 1.8 37 -999
2004-05-12 06:38:13 51°13.708 2°55.764 38.3 0.9 37 16.1
2004-05-12 06:38:17 51°13.708 2°55.765 36.4 0.5 47 16.1
2004-05-12 06:38:23 51°13.707 2°55.765 35.7 0.1 49 15.3
2004-05-12 06:38:27 51°13.707 2°55.765 35.5 0.4 196 16.2
2004-05-12 06:38:33 51°13.705 2°55.763 35.5 1 204 6.5
2004-05-12 06:38:37 51°13.703 2°55.762 35.9 1.6 207 15.6
2004-05-12 06:38:43 51°13.7 2°55.76 36.3 1.9 211 5.7
2004-05-12 06:38:47 51°13.698 2°55.758 36.9 2.1 211 -999
2004-05-12 06:38:53 51°13.695 2°55.755 37 2.1 215 -999
2004-05-12 06:38:58 51°13.692 2°55.752 37.4 2.1 212 -999
2004-05-12 06:39:03 51°13.69 2°55.75 38.1 1.9 216 -999
2004-05-12 06:39:07 51°13.689 2°55.749 38.6 1.3 217 -999
2004-05-12 06:39:13 51°13.69 2°55.749 37.7 0.5 9 -999
2004-05-12 06:39:18 51°13.692 2°55.75 32.4 1.4 15 -999
2004-05-12 06:39:23 51°13.695 2°55.751 24.6 2.2 13 5.4
2004-05-12 06:39:28 51°13.7 2°55.751 14.7 3 4 -999
2004-05-12 06:39:34 51°13.707 2°55.749 4.5 4.6 350 -999
2004-05-12 06:39:38 51°13.713 2°55.747 353.4 5.4 343 -999
2004-05-12 06:39:43 51°13.72 2°55.741 345.1 5.8 338 7.3
2004-05-12 06:39:47 51°13.726 2°55.737 339.6 5.5 332 13.3
2004-05-12 06:39:53 51°13.733 2°55.73 336.4 5.2 331 12.3
2004-05-12 06:39:58 51°13.739 2°55.724 334.4 5.3 329 11.9
2004-05-12 06:40:03 51°13.746 2°55.718 332.8 5.4 329 12
2004-05-12 06:40:07 51°13.751 2°55.712 332.6 5.6 328 11.7
2004-05-12 06:40:13 51°13.759 2°55.704 333.1 5.8 329 11.8
2004-05-12 06:40:18 51°13.766 2°55.697 333.7 6 329 11.8
2004-05-12 06:40:23 51°13.773 2°55.69 333.8 6.1 328 12
2004-05-12 06:40:27 51°13.779 2°55.685 333.3 6.2 328 12
2004-05-12 06:40:33 51°13.788 2°55.676 333.1 6.4 327 11.8
2004-05-12 06:40:38 51°13.796 2°55.668 332.7 6.4 327 11.9
2004-05-12 06:40:43 51°13.803 2°55.66 332.4 6.5 326 12.1
2004-05-12 06:40:48 51°13.811 2°55.652 331.9 6.6 326 12.1
2004-05-12 06:40:53 51°13.818 2°55.644 331.5 6.7 326 12
2004-05-12 06:40:58 51°13.826 2°55.636 331.5 6.7 327 12
2004-05-12 06:41:03 51°13.834 2°55.628 332.6 6.8 328 11.9
2004-05-12 06:41:07 51°13.84 2°55.622 334.1 6.9 330 12
2004-05-12 06:41:13 51°13.851 2°55.613 335.5 7 330 11.8
2004-05-12 06:41:17 51°13.857 2°55.607 336.7 7.1 332 11.7
2004-05-12 06:41:23 51°13.868 2°55.598 337.8 7.1 333 11.8
2004-05-12 06:41:28 51°13.877 2°55.591 338.8 7.2 333 11.7
2004-05-12 06:41:33 51°13.886 2°55.584 339.9 7.3 334 11.6
2004-05-12 06:41:38 51°13.895 2°55.577 340.2 7.3 334 11.7
2004-05-12 06:41:43 51°13.904 2°55.569 340 7.4 334 11.9
2004-05-12 06:41:48 51°13.914 2°55.562 339.6 7.4 334 11.8
2004-05-12 06:41:53 51°13.923 2°55.555 340 7.5 336 12.1
2004-05-12 06:41:58 51°13.933 2°55.549 341.1 7.5 336 12.4
2004-05-12 06:42:03 51°13.942 2°55.542 341.7 7.5 337 12.4
2004-05-12 06:42:07 51°13.95 2°55.537 341.8 7.5 337 12.4
2004-05-12 06:42:13 51°13.961 2°55.529 341.9 7.5 337 12.9
2004-05-12 06:42:17 51°13.969 2°55.524 342.2 7.5 337 13.1
2004-05-12 06:42:23 51°13.98 2°55.516 342.2 7.5 336 13.1
2004-05-12 06:42:27 51°13.988 2°55.51 341.8 7.5 335 13.2
2004-05-12 06:42:33 51°13.999 2°55.502 341.5 7.5 335 13.3
2004-05-12 06:42:37 51°14.007 2°55.496 341.2 7.5 335 13.1
2004-05-12 06:42:43 51°14.018 2°55.488 341.2 7.5 335 12.8
2004-05-12 06:42:47 51°14.025 2°55.482 341.5 7.5 335 12.9
2004-05-12 06:42:53 51°14.037 2°55.474 342 7.5 336 13.3
2004-05-12 06:42:58 51°14.047 2°55.468 342.7 7.6 337 13.3
2004-05-12 06:43:03 51°14.057 2°55.461 343.5 7.7 337 13.3
2004-05-12 06:43:07 51°14.065 2°55.456 344.2 7.9 338 13.4
2004-05-12 06:43:13 51°14.078 2°55.448 345.1 8.1 339 13.4
2004-05-12 06:43:17 51°14.086 2°55.443 345.7 8.2 340 13.2
2004-05-12 06:43:23 51°14.099 2°55.436 346.6 8.2 340 13.3
2004-05-12 06:43:27 51°14.108 2°55.431 346.7 8.6 340 13.2
2004-05-12 06:43:33 51°14.122 2°55.422 346.5 8.7 339 13.2
2004-05-12 06:43:38 51°14.134 2°55.416 345.9 8.9 340 13.2
2004-05-12 06:43:43 51°14.145 2°55.409 345.5 9 339 13.3
2004-05-12 06:43:48 51°14.157 2°55.401 345.1 9.1 338 13.3
2004-05-12 06:43:53 51°14.169 2°55.393 344 9.3 337 13.3
2004-05-12 06:43:58 51°14.181 2°55.384 343.1 9.5 335 13.3
2004-05-12 06:44:03 51°14.193 2°55.373 340.5 9.8 332 13.3
2004-05-12 06:44:07 51°14.202 2°55.364 338 9.9 329 13.3
2004-05-12 06:44:13 51°14.216 2°55.348 333.2 10.1 324 13.2
2004-05-12 06:44:18 51°14.227 2°55.334 329.5 10.4 321 13.2
2004-05-12 06:44:23 51°14.238 2°55.318 327.3 10.7 319 13.1
2004-05-12 06:44:27 51°14.247 2°55.304 324.9 10.9 317 13.3
2004-05-12 06:44:33 51°14.26 2°55.283 322.7 11.2 315 13.1
2004-05-12 06:44:38 51°14.27 2°55.264 320.4 11.5 312 13.1
2004-05-12 06:44:43 51°14.281 2°55.244 318.3 11.7 310 13
2004-05-12 06:44:46 51°14.287 2°55.232 315.7 11.8 308 13.2
2004-05-12 06:44:53 51°14.301 2°55.202 313.5 12.1 306 12.9
2004-05-12 06:44:58 51°14.311 2°55.18 312.6 12.2 307 13
2004-05-12 06:45:03 51°14.321 2°55.159 313 12.1 307 13
2004-05-12 06:45:07 51°14.329 2°55.142 313.9 12.2 308 12.8
2004-05-12 06:45:13 51°14.341 2°55.116 313.8 12.3 307 13
2004-05-12 06:45:17 51°14.349 2°55.098 312.3 12.4 304 13
2004-05-12 06:45:23 51°14.36 2°55.07 309.9 12.5 301 13.1
2004-05-12 06:45:28 51°14.368 2°55.046 307.9 12.6 300 13.1
2004-05-12 06:45:33 51°14.378 2°55.021 306.5 12.7 300 13.3
2004-05-12 06:45:37 51°14.385 2°55.002 305.5 12.9 303 13
2004-05-12 06:45:42 51°14.396 2°54.979 306.2 13 307 13.3
2004-05-12 06:45:47 51°14.407 2°54.957 308.6 12.9 308 12.9
2004-05-12 06:45:53 51°14.421 2°54.93 309.9 13 309 13.2
2004-05-12 06:45:57 51°14.43 2°54.912 310.7 12.9 308 13.2
2004-05-12 06:46:03 51°14.443 2°54.885 310.3 13 308 13.2
2004-05-12 06:46:07 51°14.452 2°54.867 309.9 13 308 13.1
2004-05-12 06:46:13 51°14.465 2°54.84 309.5 12.9 308 13
2004-05-12 06:46:17 51°14.474 2°54.822 309.5 13 307 13.1
2004-05-12 06:46:23 51°14.487 2°54.795 309.3 12.9 307 13.2
2004-05-12 06:46:27 51°14.496 2°54.777 309.3 12.8 308 12.9
2004-05-12 06:46:33 51°14.508 2°54.75 309.5 12.8 307 12.4
2004-05-12 06:46:38 51°14.519 2°54.727 309.4 12.8 307 12.9
2004-05-12 06:46:40 51°14.523 2°54.719 309 12.7 306 12.6
2004-05-12 06:46:47 51°14.538 2°54.687 309.1 12.7 307 12.4
2004-05-12 06:46:53 51°14.551 2°54.66 309.1 12.7 307 12.3
2004-05-12 06:46:57 51°14.559 2°54.642 308.9 12.8 307 12.5
2004-05-12 06:47:03 51°14.572 2°54.615 309.2 12.8 307 12.6
2004-05-12 06:47:08 51°14.583 2°54.593 309.7 12.6 308 12.5
2004-05-12 06:47:13 51°14.594 2°54.57 309.8 12.6 307 12.8
2004-05-12 06:47:18 51°14.604 2°54.548 309.8 12.6 307 13
2004-05-12 06:47:23 51°14.615 2°54.525 309.7 12.7 307 12.3
2004-05-12 06:47:27 51°14.624 2°54.507 309.5 12.8 308 12.4
2004-05-12 06:47:33 51°14.637 2°54.481 310.4 12.8 310 12.5
2004-05-12 06:47:38 51°14.648 2°54.459 310.6 12.9 308 12.7
2004-05-12 06:47:43 51°14.659 2°54.436 310.3 12.9 308 12.6
2004-05-12 06:47:47 51°14.668 2°54.418 309.4 12.8 307 12.7
2004-05-12 06:47:53 51°14.681 2°54.39 309.5 12.8 307 12.5
2004-05-12 06:47:57 51°14.688 2°54.371 306.8 12.9 302 12.4
2004-05-12 06:48:02 51°14.697 2°54.347 304.2 12.9 301 12.8
2004-05-12 06:48:07 51°14.706 2°54.322 302.4 12.9 299 12.8
2004-05-12 06:48:13 51°14.716 2°54.292 301.6 12.9 298 12.9
2004-05-12 06:48:17 51°14.723 2°54.272 300.8 12.7 298 12.5
2004-05-12 06:48:22 51°14.731 2°54.248 300.1 12.8 299 12.4
2004-05-12 06:48:27 51°14.739 2°54.222 300.1 12.8 298 12.5
2004-05-12 06:48:33 51°14.749 2°54.193 300.1 12.8 299 12.4
2004-05-12 06:48:37 51°14.756 2°54.173 299.7 12.7 297 12.2
2004-05-12 06:48:43 51°14.766 2°54.143 299 12.7 298 12.3
2004-05-12 06:48:47 51°14.772 2°54.123 299.5 12.9 298 12.5
2004-05-12 06:48:53 51°14.782 2°54.093 299.5 12.8 298 12.6
2004-05-12 06:48:58 51°14.791 2°54.068 299.7 12.7 298 12.5
2004-05-12 06:49:03 51°14.799 2°54.044 299.2 12.6 297 12.2
2004-05-12 06:49:07 51°14.805 2°54.024 299 12.7 297 12.2
2004-05-12 06:49:13 51°14.815 2°53.993 298.9 12.8 297 12.2
2004-05-12 06:49:17 51°14.821 2°53.973 298.5 12.6 296 12.3
2004-05-12 06:49:23 51°14.83 2°53.943 298.5 12.8 297 12.2
2004-05-12 06:49:28 51°14.837 2°53.918 298.3 12.7 294 12.2
2004-05-12 06:49:33 51°14.845 2°53.892 298.3 12.8 295 12.1
2004-05-12 06:49:38 51°14.852 2°53.867 298.4 12.7 295 11.9
2004-05-12 06:49:43 51°14.859 2°53.841 297.4 12.7 295 11.9
2004-05-12 06:49:47 51°14.865 2°53.82 296.8 12.8 293 12.1
2004-05-12 06:49:53 51°14.874 2°53.788 296.5 12.9 293 12.1
2004-05-12 06:49:58 51°14.88 2°53.762 295.6 12.8 292 12.2
2004-05-12 06:50:03 51°14.886 2°53.736 294.8 12.8 292 12
2004-05-12 06:50:07 51°14.891 2°53.714 294.8 12.8 291 11.9
2004-05-12 06:50:13 51°14.9 2°53.682 295.1 13 292 12.2
2004-05-12 06:50:17 51°14.905 2°53.661 295 13 292 12.1
2004-05-12 06:50:23 51°14.913 2°53.63 295.1 12.8 293 12.3
2004-05-12 06:50:27 51°14.918 2°53.609 295.4 12.7 292 12.2
2004-05-12 06:50:33 51°14.926 2°53.577 295.3 12.9 292 12.2
2004-05-12 06:50:37 51°14.931 2°53.556 295.1 12.9 291 12.5
2004-05-12 06:50:43 51°14.939 2°53.524 294.5 12.9 291 12.6
2004-05-12 06:50:47 51°14.945 2°53.503 294.6 12.7 292 12.4
2004-05-12 06:50:53 51°14.953 2°53.472 294.9 12.9 293 12.5
2004-05-12 06:50:58 51°14.959 2°53.446 294.9 12.6 291 11.9
2004-05-12 06:51:02 51°14.964 2°53.425 294.6 12.7 292 12
2004-05-12 06:51:05 51°14.968 2°53.408 293.9 12.8 291 12.3
2004-05-12 06:51:13 51°14.978 2°53.367 294.9 12.9 293 12.2
2004-05-12 06:51:18 51°14.985 2°53.34 294.6 13 293 12.4
2004-05-12 06:51:23 51°14.991 2°53.314 294.8 12.8 291 12.6
2004-05-12 06:51:27 51°14.997 2°53.293 295.4 12.8 292 12.6
2004-05-12 06:51:33 51°15.005 2°53.262 294.8 12.8 292 12.3
2004-05-12 06:51:37 51°15.01 2°53.241 294.2 12.9 293 12.2
2004-05-12 06:51:42 51°15.016 2°53.215 294.6 12.8 292 12.4
2004-05-12 06:51:48 51°15.024 2°53.184 295.1 12.7 293 12.6
2004-05-12 06:51:53 51°15.031 2°53.158 295.4 12.7 293 12.4
2004-05-12 06:51:57 51°15.037 2°53.137 294.7 12.7 293 12.5
2004-05-12 06:52:02 51°15.043 2°53.111 294.8 12.8 291 12.2
2004-05-12 06:52:08 51°15.051 2°53.079 294.5 12.8 292 12.6
2004-05-12 06:52:13 51°15.058 2°53.052 294.8 12.8 292 12.5
2004-05-12 06:52:17 51°15.063 2°53.031 294.6 12.8 292 12.8
2004-05-12 06:52:22 51°15.069 2°53.005 294.7 12.7 291 12.6
2004-05-12 06:52:27 51°15.075 2°52.979 294.2 12.7 291 12.8
2004-05-12 06:52:33 51°15.083 2°52.947 294.8 12.6 291 12.7
2004-05-12 06:52:38 51°15.09 2°52.921 295 12.7 291 12.8
2004-05-12 06:52:42 51°15.095 2°52.9 294.8 12.7 292 12.9
2004-05-12 06:52:47 51°15.101 2°52.874 294.8 12.7 291 12.8
2004-05-12 06:52:53 51°15.109 2°52.842 294.7 12.8 292 12.9
2004-05-12 06:52:57 51°15.114 2°52.821 294.9 12.8 292 13.2
2004-05-12 06:53:03 51°15.122 2°52.79 295.1 12.9 291 13.2
2004-05-12 06:53:07 51°15.128 2°52.769 295.4 13 292 13.1
2004-05-12 06:53:13 51°15.136 2°52.736 295.5 12.9 291 13
2004-05-12 06:53:18 51°15.143 2°52.71 295.3 13 292 13.3
2004-05-12 06:53:23 51°15.149 2°52.683 295 12.9 291 13.1
2004-05-12 06:53:27 51°15.154 2°52.662 295.3 12.9 292 13.3
2004-05-12 06:53:33 51°15.162 2°52.63 295.1 13 291 13.4
2004-05-12 06:53:37 51°15.167 2°52.609 295 12.9 291 13.4
2004-05-12 06:53:43 51°15.175 2°52.577 295.1 13 292 13.4
2004-05-12 06:53:47 51°15.18 2°52.556 295 12.9 290 13.7
2004-05-12 06:53:53 51°15.188 2°52.524 295.7 12.9 292 13.7
2004-05-12 06:53:57 51°15.193 2°52.503 294.7 12.9 288 13.5
2004-05-12 06:54:02 51°15.199 2°52.476 293.5 12.9 290 13.7
2004-05-12 06:54:07 51°15.204 2°52.449 292.1 12.9 286 13.7
2004-05-12 06:54:13 51°15.21 2°52.416 290.8 12.9 287 13.9
2004-05-12 06:54:17 51°15.214 2°52.394 291 13 286 14
2004-05-12 06:54:23 51°15.22 2°52.361 290 12.9 285 14
2004-05-12 06:54:27 51°15.224 2°52.339 289.5 12.9 285 13.7
2004-05-12 06:54:33 51°15.23 2°52.306 289.5 13 287 13.8
2004-05-12 06:54:37 51°15.234 2°52.284 289.5 12.9 287 14
2004-05-12 06:54:42 51°15.239 2°52.257 289.5 12.9 286 14.2
2004-05-12 06:54:47 51°15.244 2°52.23 289.7 12.9 286 13.9
2004-05-12 06:54:53 51°15.25 2°52.197 290.2 12.9 286 14
2004-05-12 06:54:57 51°15.253 2°52.175 289.3 13 286 14.1
2004-05-12 06:55:03 51°15.26 2°52.142 290 12.9 287 14.2
2004-05-12 06:55:07 51°15.264 2°52.12 289.7 13 286 14.3
2004-05-12 06:55:13 51°15.27 2°52.087 290.3 12.9 287 14.3
2004-05-12 06:55:18 51°15.275 2°52.06 289.8 13 288 14.4
2004-05-12 06:55:20 51°15.277 2°52.049 290.2 13 287 14.4
2004-05-12 06:55:27 51°15.284 2°52.01 290.2 12.8 285 14.5
2004-05-12 06:55:33 51°15.29 2°51.978 290.2 12.7 287 14.3
2004-05-12 06:55:37 51°15.293 2°51.956 288.8 12.7 282 14.4
2004-05-12 06:55:43 51°15.298 2°51.923 286.2 12.8 282 14.4
2004-05-12 06:55:48 51°15.3 2°51.895 283.7 12.8 279 14.5
2004-05-12 06:55:53 51°15.303 2°51.867 282.9 12.8 279 14.6
2004-05-12 06:55:58 51°15.305 2°51.839 282 12.7 278 14.2
2004-05-12 06:56:03 51°15.308 2°51.811 280.7 12.7 277 14.5
2004-05-12 06:56:07 51°15.309 2°51.788 280.3 12.9 276 14.6
2004-05-12 06:56:13 51°15.312 2°51.754 280.1 12.9 278 14.6
2004-05-12 06:56:18 51°15.313 2°51.726 279.9 12.9 274 14.9
2004-05-12 06:56:23 51°15.315 2°51.698 279.7 12.9 277 15
2004-05-12 06:56:27 51°15.315 2°51.675 279.2 12.8 271 14.9
2004-05-12 06:56:33 51°15.315 2°51.642 275.6 12.8 267 14.8
2004-05-12 06:56:37 51°15.314 2°51.619 271.4 12.8 267 14.7
2004-05-12 06:56:43 51°15.312 2°51.585 269.5 12.7 264 14.7
2004-05-12 06:56:47 51°15.31 2°51.563 267.4 12.7 261 14.8
2004-05-12 06:56:53 51°15.306 2°51.53 265.1 12.7 261 14.9
2004-05-12 06:56:57 51°15.303 2°51.508 264.4 12.8 261 14.8
2004-05-12 06:57:03 51°15.3 2°51.475 264.2 12.6 260 14.9
2004-05-12 06:57:07 51°15.297 2°51.453 263.7 12.7 257 14.5
2004-05-12 06:57:13 51°15.294 2°51.419 263.4 12.6 262 14.7
2004-05-12 06:57:17 51°15.289 2°51.398 262.2 12.9 254 14.6
2004-05-12 06:57:23 51°15.287 2°51.364 261.5 12.8 264 14.8
2004-05-12 06:57:26 51°15.283 2°51.348 262.6 12.7 254 14.9
2004-05-12 06:57:33 51°15.28 2°51.308 263.2 12.8 258 15
2004-05-12 06:57:38 51°15.276 2°51.28 262.4 12.9 258 15.1
2004-05-12 06:57:42 51°15.274 2°51.258 263 12.7 262 15
2004-05-12 06:57:45 51°15.271 2°51.241 263.1 12.7 257 15
2004-05-12 06:57:53 51°15.265 2°51.197 262.4 12.8 260 14.8
2004-05-12 06:57:58 51°15.263 2°51.169 262.8 12.8 260 14.8
2004-05-12 06:58:03 51°15.259 2°51.141 263 12.7 258 14.7
2004-05-12 06:58:07 51°15.258 2°51.119 262.9 12.8 263 14.7
2004-05-12 06:58:13 51°15.253 2°51.085 263.4 12.8 258 14.7
2004-05-12 06:58:17 51°15.252 2°51.063 263.8 12.7 260 14.8
2004-05-12 06:58:23 51°15.247 2°51.029 264 12.9 260 14.9
2004-05-12 06:58:27 51°15.246 2°51.007 264.3 12.7 263 15.1
2004-05-12 06:58:33 51°15.241 2°50.974 264 12.8 256 14.8
2004-05-12 06:58:37 51°15.24 2°50.951 263.8 12.8 264 14.9
2004-05-12 06:58:43 51°15.235 2°50.918 264.2 12.8 257 14.8
2004-05-12 06:58:47 51°15.234 2°50.896 263.7 12.9 263 15.1
2004-05-12 06:58:53 51°15.229 2°50.863 264.5 12.7 260 14.9
2004-05-12 06:58:58 51°15.227 2°50.835 264 12.7 262 15.1
2004-05-12 06:59:02 51°15.223 2°50.813 264.1 12.9 257 15.2
2004-05-12 06:59:08 51°15.221 2°50.779 263.8 12.8 264 15.3
2004-05-12 06:59:13 51°15.217 2°50.751 264.8 12.8 260 15.1
2004-05-12 06:59:18 51°15.215 2°50.723 264.1 12.7 262 15.1
2004-05-12 06:59:23 51°15.211 2°50.696 263.6 12.9 257 14.9
2004-05-12 06:59:28 51°15.209 2°50.667 263.6 12.8 263 15.2
2004-05-12 06:59:33 51°15.205 2°50.64 264.4 12.7 262 15
2004-05-12 06:59:37 51°15.203 2°50.617 263.4 13.1 267 15.2
2004-05-12 06:59:42 51°15.2 2°50.589 266.2 12.8 257 15.2
2004-05-12 06:59:47 51°15.198 2°50.561 264.9 12.9 264 14.9
2004-05-12 06:59:53 51°15.195 2°50.528 265.1 12.8 262 15.2
2004-05-12 06:59:57 51°15.193 2°50.505 265.3 12.8 261 15
2004-05-12 07:00:03 51°15.19 2°50.472 264.5 12.8 262 15.1
2004-05-12 07:00:05 51°15.188 2°50.461 265.1 12.7 260 15.1
2004-05-12 07:00:13 51°15.184 2°50.416 264 12.8 260 15
2004-05-12 07:00:18 51°15.18 2°50.388 264.2 12.8 258 14.9
2004-05-12 07:00:22 51°15.179 2°50.366 264.1 12.9 263 15
2004-05-12 07:00:28 51°15.174 2°50.333 264.8 12.7 259 15.2
2004-05-12 07:00:33 51°15.172 2°50.304 264.1 12.8 260 15
2004-05-12 07:00:37 51°15.169 2°50.282 263.9 12.8 260 15.1
2004-05-12 07:00:43 51°15.167 2°50.249 265.1 12.7 263 15.2
2004-05-12 07:00:48 51°15.163 2°50.221 264.4 12.8 260 15.1
2004-05-12 07:00:53 51°15.161 2°50.194 265.1 12.8 264 15.2
2004-05-12 07:00:57 51°15.158 2°50.172 264.1 12.7 260 15.1
2004-05-12 07:01:03 51°15.155 2°50.138 263.8 12.8 261 15
2004-05-12 07:01:07 51°15.153 2°50.116 264.7 12.7 261 15.1
2004-05-12 07:01:13 51°15.148 2°50.083 263.4 12.8 259 15.1
2004-05-12 07:01:17 51°15.147 2°50.06 264 12.8 263 15.2
2004-05-12 07:01:23 51°15.143 2°50.027 265.4 12.7 260 15.2
2004-05-12 07:01:27 51°15.141 2°50.005 264.2 12.8 261 15.1
2004-05-12 07:01:33 51°15.138 2°49.971 266.1 12.8 262 15.2
2004-05-12 07:01:37 51°15.135 2°49.949 264.1 12.9 261 15.2
2004-05-12 07:01:43 51°15.133 2°49.915 264.9 12.8 265 15.2
2004-05-12 07:01:45 51°15.131 2°49.904 265.6 12.7 258 15
2004-05-12 07:01:53 51°15.127 2°49.859 264.5 12.9 263 15
2004-05-12 07:01:57 51°15.125 2°49.837 265.6 12.7 262 15.1
2004-05-12 07:02:02 51°15.122 2°49.809 264.7 12.7 261 15.2
2004-05-12 07:02:06 51°15.12 2°49.787 265.3 12.9 262 15.2
2004-05-12 07:02:13 51°15.118 2°49.748 266 12.5 260 15.3
2004-05-12 07:02:18 51°15.114 2°49.72 264.5 12.9 259 15.3
2004-05-12 07:02:23 51°15.112 2°49.692 264.1 13.1 264 15.1
2004-05-12 07:02:27 51°15.109 2°49.67 266.3 12.6 260 15.2
2004-05-12 07:02:33 51°15.106 2°49.637 264.1 12.8 260 15.1
2004-05-12 07:02:38 51°15.104 2°49.608 265.3 12.9 264 15.1
2004-05-12 07:02:43 51°15.1 2°49.581 265.5 12.7 258 15.2
2004-05-12 07:02:48 51°15.099 2°49.552 265.4 12.9 262 15
2004-05-12 07:02:53 51°15.096 2°49.524 265.6 12.9 261 15.1
2004-05-12 07:02:57 51°15.094 2°49.502 265.5 12.8 262 15.1
2004-05-12 07:03:03 51°15.09 2°49.469 265.1 12.8 260 15.1
2004-05-12 07:03:06 51°15.089 2°49.452 264.3 12.8 262 15.2
2004-05-12 07:03:13 51°15.085 2°49.412 264.9 12.9 261 15.1
2004-05-12 07:03:17 51°15.084 2°49.39 265.5 12.7 265 15.2
2004-05-12 07:03:23 51°15.079 2°49.357 265.6 12.7 257 15.2
2004-05-12 07:03:27 51°15.078 2°49.335 264.5 12.8 262 15.3
2004-05-12 07:03:31 51°15.075 2°49.313 264.8 12.6 262 15.1
2004-05-12 07:03:37 51°15.072 2°49.28 263.8 12.7 263 15.1
2004-05-12 07:03:43 51°15.069 2°49.246 264.7 12.6 262 15.2
2004-05-12 07:03:47 51°15.066 2°49.224 264.8 12.9 260 15.2
2004-05-12 07:03:53 51°15.063 2°49.19 264.9 13 263 15
2004-05-12 07:03:57 51°15.061 2°49.168 265.7 12.6 262 15.2
2004-05-12 07:04:03 51°15.057 2°49.134 265.1 12.6 262 15.1
2004-05-12 07:04:07 51°15.057 2°49.111 265.4 12.9 265 15.3
2004-05-12 07:04:13 51°15.052 2°49.078 265.9 12.8 260 15.1
2004-05-12 07:04:18 51°15.051 2°49.05 265 12.7 263 15.2
2004-05-12 07:04:21 51°15.048 2°49.034 264.6 12.7 259 15.2
2004-05-12 07:04:27 51°15.046 2°48.999 265 12.9 264 15.3
2004-05-12 07:04:33 51°15.042 2°48.966 266.1 12.7 262 15.2
2004-05-12 07:04:37 51°15.04 2°48.944 265.5 12.8 260 15.1
2004-05-12 07:04:42 51°15.038 2°48.916 264.9 12.7 264 15.1
2004-05-12 07:04:47 51°15.034 2°48.888 264.7 12.9 258 15
2004-05-12 07:04:53 51°15.033 2°48.854 265.7 12.9 262 15
2004-05-12 07:04:58 51°15.027 2°48.827 264.1 13.1 256 14.9
2004-05-12 07:05:03 51°15.027 2°48.798 264.9 13.1 256 14.8
2004-05-12 07:05:06 51°15.024 2°48.782 266.2 12.6 259 14.9
2004-05-12 07:05:13 51°15.021 2°48.743 264.8 12.7 263 14.8
2004-05-12 07:05:18 51°15.018 2°48.714 264.8 12.9 264 15
2004-05-12 07:05:23 51°15.015 2°48.687 266.9 12.8 265 15.1
2004-05-12 07:05:27 51°15.013 2°48.665 265.6 12.7 261 15.2
2004-05-12 07:05:33 51°15.01 2°48.631 265.9 12.9 262 15.2
2004-05-12 07:05:37 51°15.009 2°48.608 265.6 12.8 262 15.1
2004-05-12 07:05:43 51°15.006 2°48.575 265.8 12.8 262 15.3
2004-05-12 07:05:48 51°15.003 2°48.546 266.3 12.9 259 15.1
2004-05-12 07:05:53 51°15 2°48.518 264.7 13 261 15.1
2004-05-12 07:05:58 51°14.997 2°48.49 265.4 12.8 261 15.2
2004-05-12 07:06:03 51°14.995 2°48.462 264.5 12.8 259 15.2
2004-05-12 07:06:06 51°14.993 2°48.445 265.6 13 260 15
2004-05-12 07:06:13 51°14.99 2°48.406 265.5 12.9 262 15.1
2004-05-12 07:06:17 51°14.986 2°48.384 264.8 12.8 260 15.3
2004-05-12 07:06:23 51°14.984 2°48.35 265.8 12.8 260 15.2
2004-05-12 07:06:27 51°14.981 2°48.328 265.2 12.8 257 15.3
2004-05-12 07:06:33 51°14.977 2°48.294 264.7 12.7 260 15
2004-05-12 07:06:37 51°14.976 2°48.273 264.7 12.6 260 14.9
2004-05-12 07:06:43 51°14.971 2°48.239 263.3 12.8 258 15
2004-05-12 07:06:48 51°14.969 2°48.211 265.1 12.5 262 15.1
2004-05-12 07:06:53 51°14.966 2°48.184 265.7 12.5 259 15.2
2004-05-12 07:06:58 51°14.963 2°48.156 264.8 12.6 261 15.3
2004-05-12 07:07:03 51°14.96 2°48.129 266.1 12.5 261 15.1
2004-05-12 07:07:05 51°14.959 2°48.118 264.4 12.7 260 15.4
2004-05-12 07:07:13 51°14.956 2°48.074 266.5 12.6 265 15.5
2004-05-12 07:07:17 51°14.954 2°48.051 266.4 12.7 261 15.3
2004-05-12 07:07:23 51°14.951 2°48.018 266.1 12.6 262 15.5
2004-05-12 07:07:27 51°14.947 2°47.997 265.5 12.6 257 15.4
2004-05-12 07:07:33 51°14.945 2°47.963 264.7 12.8 262 15.4
2004-05-12 07:07:36 51°14.943 2°47.947 266.1 12.7 256 15.2
2004-05-12 07:07:43 51°14.94 2°47.908 264 12.8 266 15.2
2004-05-12 07:07:45 51°14.937 2°47.897 265.9 12.7 258 15.4
2004-05-12 07:07:53 51°14.934 2°47.853 266.3 12.6 263 15.3
2004-05-12 07:07:58 51°14.931 2°47.825 266.8 12.8 261 15.3
2004-05-12 07:08:01 51°14.929 2°47.808 265.8 12.8 261 15.5
2004-05-12 07:08:07 51°14.926 2°47.775 266.8 12.9 257 15.2
2004-05-12 07:08:13 51°14.925 2°47.741 265.5 12.9 267 15.4
2004-05-12 07:08:17 51°14.921 2°47.719 267.8 12.8 254 15.3
2004-05-12 07:08:23 51°14.92 2°47.685 265.6 12.8 267 15.1
2004-05-12 07:08:27 51°14.916 2°47.664 266.5 12.6 259 15.4
2004-05-12 07:08:33 51°14.914 2°47.63 264.7 12.8 260 15.4
2004-05-12 07:08:37 51°14.911 2°47.608 266 12.6 258 15.3
2004-05-12 07:08:43 51°14.908 2°47.575 264.9 12.6 262 15.4
2004-05-12 07:08:46 51°14.906 2°47.558 265 12.7 260 15.5
2004-05-12 07:08:53 51°14.903 2°47.519 264 12.8 259 15.4
2004-05-12 07:08:57 51°14.9 2°47.498 266 12.6 258 15.4
2004-05-12 07:09:03 51°14.897 2°47.464 264.6 12.7 264 15.3
2004-05-12 07:09:08 51°14.893 2°47.437 265.9 12.6 257 15.2
2004-05-12 07:09:13 51°14.892 2°47.409 264.8 12.7 260 15.2
2004-05-12 07:09:18 51°14.888 2°47.382 265.6 12.6 259 15
2004-05-12 07:09:23 51°14.886 2°47.354 265.2 12.7 263 15
2004-05-12 07:09:27 51°14.885 2°47.332 265.8 12.5 262 15
2004-05-12 07:09:33 51°14.881 2°47.299 265.3 12.6 259 14.9
2004-05-12 07:09:37 51°14.879 2°47.277 265.6 12.7 260 14.6
2004-05-12 07:09:43 51°14.875 2°47.244 264.2 12.7 260 14.5
2004-05-12 07:09:47 51°14.874 2°47.222 266 12.7 264 14.3
2004-05-12 07:09:51 51°14.871 2°47.2 265.1 12.6 262 14.4
2004-05-12 07:09:57 51°14.868 2°47.167 265.9 12.5 260 14.2
2004-05-12 07:10:03 51°14.864 2°47.134 264.8 12.7 260 13.8
2004-05-12 07:10:07 51°14.862 2°47.112 263.5 12.7 260 14.3
2004-05-12 07:10:13 51°14.858 2°47.079 264.9 12.4 262 14
2004-05-12 07:10:17 51°14.856 2°47.057 263.5 12.7 264 13.7
2004-05-12 07:10:23 51°14.853 2°47.024 265.6 12.6 260 13.9
2004-05-12 07:10:27 51°14.851 2°47.002 264.5 12.7 261 13.7
2004-05-12 07:10:33 51°14.847 2°46.969 264.5 12.6 261 13.3
2004-05-12 07:10:38 51°14.844 2°46.941 264.9 12.7 261 13.3
2004-05-12 07:10:43 51°14.842 2°46.913 264.9 12.8 262 13.1
2004-05-12 07:10:47 51°14.839 2°46.892 265.2 12.6 259 13.4
2004-05-12 07:10:53 51°14.835 2°46.858 264.8 12.9 257 12.9
2004-05-12 07:10:58 51°14.834 2°46.83 264.7 12.7 264 12.8
2004-05-12 07:11:02 51°14.831 2°46.809 265.6 12.5 260 12.6
2004-05-12 07:11:08 51°14.827 2°46.775 264.7 12.8 261 12.7
2004-05-12 07:11:13 51°14.825 2°46.747 265.1 12.8 262 12.5
2004-05-12 07:11:17 51°14.821 2°46.725 264.2 12.8 257 12.1
2004-05-12 07:11:23 51°14.819 2°46.691 264.1 12.9 264 12.1
2004-05-12 07:11:28 51°14.815 2°46.664 264.6 12.7 259 11.9
2004-05-12 07:11:33 51°14.813 2°46.636 264.9 12.7 262 11.9
2004-05-12 07:11:37 51°14.81 2°46.613 265 13.1 261 11.8
2004-05-12 07:11:43 51°14.808 2°46.579 265.2 12.8 262 11.8
2004-05-12 07:11:47 51°14.805 2°46.557 265.8 12.8 262 11.9
2004-05-12 07:11:53 51°14.802 2°46.523 264.6 12.9 263 11.9
2004-05-12 07:11:57 51°14.799 2°46.501 265.9 12.9 259 11.9
2004-05-12 07:12:03 51°14.797 2°46.467 265.7 12.9 261 11.6
2004-05-12 07:12:08 51°14.794 2°46.439 265.5 12.8 260 11.5
2004-05-12 07:12:13 51°14.791 2°46.411 264.7 12.8 261 11.6
2004-05-12 07:12:17 51°14.789 2°46.388 264.7 12.9 262 11.5
2004-05-12 07:12:23 51°14.786 2°46.355 266.2 12.8 262 11.4
2004-05-12 07:12:28 51°14.783 2°46.327 265.6 12.8 261 11.4
2004-05-12 07:12:33 51°14.781 2°46.299 265.7 12.8 260 11.3
2004-05-12 07:12:38 51°14.778 2°46.271 265.1 12.9 260 11.3
2004-05-12 07:12:43 51°14.775 2°46.243 264.3 12.8 260 11.5
2004-05-12 07:12:47 51°14.773 2°46.221 265.9 12.9 261 11.4
2004-05-12 07:12:53 51°14.77 2°46.188 266.2 12.8 260 11.1
2004-05-12 07:12:58 51°14.767 2°46.159 266.1 12.8 262 11.2
2004-05-12 07:13:03 51°14.765 2°46.132 266.1 12.5 263 11.2
2004-05-12 07:13:07 51°14.762 2°46.11 264.9 13 260 11.3
2004-05-12 07:13:13 51°14.76 2°46.076 265.4 12.9 263 11.4
2004-05-12 07:13:18 51°14.755 2°46.048 266.1 12.7 255 11.1
2004-05-12 07:13:22 51°14.755 2°46.025 263.8 12.9 266 11.2
2004-05-12 07:13:27 51°14.752 2°45.998 266.2 12.7 259 11.1
2004-05-12 07:13:33 51°14.75 2°45.964 266.1 12.7 261 11.5
2004-05-12 07:13:38 51°14.746 2°45.936 264.9 12.7 260 11.5
2004-05-12 07:13:43 51°14.745 2°45.909 265.9 12.6 265 11.3
2004-05-12 07:13:48 51°14.741 2°45.881 264.9 12.8 261 11.6
2004-05-12 07:13:53 51°14.739 2°45.853 265.2 12.9 265 11.8
2004-05-12 07:13:58 51°14.736 2°45.825 265.3 12.8 259 11.8
2004-05-12 07:14:03 51°14.734 2°45.796 264.9 12.9 265 11.9
2004-05-12 07:14:05 51°14.733 2°45.786 266.4 12.8 261 12
2004-05-12 07:14:13 51°14.728 2°45.74 265.6 12.9 262 12.1
2004-05-12 07:14:17 51°14.727 2°45.718 265.3 12.8 262 12.1
2004-05-12 07:14:21 51°14.724 2°45.696 266.3 12.8 262 12.2
2004-05-12 07:14:27 51°14.722 2°45.662 265.2 12.8 265 12.3
2004-05-12 07:14:33 51°14.717 2°45.628 266.8 12.8 264 12.4
2004-05-12 07:14:38 51°14.717 2°45.6 264.6 12.8 267 12.7
2004-05-12 07:14:43 51°14.713 2°45.573 267.1 12.6 260 12.9
2004-05-12 07:14:47 51°14.712 2°45.55 264.9 12.8 262 12.9
2004-05-12 07:14:53 51°14.709 2°45.516 266.4 12.8 264 13.1
2004-05-12 07:14:57 51°14.707 2°45.494 266.1 12.7 262 13.3
2004-05-12 07:15:03 51°14.704 2°45.461 265.5 12.7 261 13.3
2004-05-12 07:15:07 51°14.702 2°45.439 265.6 12.6 262 13.4
2004-05-12 07:15:13 51°14.698 2°45.406 265.1 12.6 261 13.5
2004-05-12 07:15:18 51°14.696 2°45.378 264.6 12.6 263 13.7
2004-05-12 07:15:23 51°14.694 2°45.351 266.1 12.6 264 13.7
2004-05-12 07:15:27 51°14.691 2°45.329 265.1 12.6 259 13.8
2004-05-12 07:15:33 51°14.688 2°45.296 265 12.7 264 13.8
2004-05-12 07:15:38 51°14.685 2°45.268 264.8 12.6 263 14
2004-05-12 07:15:43 51°14.682 2°45.24 265 12.7 263 13.9
2004-05-12 07:15:47 51°14.681 2°45.219 264.9 12.6 261 14.1
2004-05-12 07:15:53 51°14.676 2°45.186 265.6 12.4 264 14.1
2004-05-12 07:15:58 51°14.675 2°45.158 263.4 12.8 268 14.5
2004-05-12 07:16:03 51°14.671 2°45.132 266.3 12.3 258 14.4
2004-05-12 07:16:08 51°14.67 2°45.104 264.2 12.6 265 14.5
2004-05-12 07:16:13 51°14.666 2°45.077 265.2 12.6 264 14.6
2004-05-12 07:16:17 51°14.665 2°45.055 265.1 12.4 265 14.8
2004-05-12 07:16:23 51°14.66 2°45.022 264.1 12.6 257 15.1
2004-05-12 07:16:28 51°14.659 2°44.994 265.2 12.7 264 15
2004-05-12 07:16:33 51°14.655 2°44.967 266.1 12.6 260 15.3
2004-05-12 07:16:37 51°14.654 2°44.945 265.2 12.5 259 15.3
2004-05-12 07:16:43 51°14.651 2°44.912 263.8 12.6 262 15.3
2004-05-12 07:16:45 51°14.65 2°44.901 265.2 12.4 258 15.6
2004-05-12 07:16:53 51°14.646 2°44.857 264.9 12.5 260 15.7
2004-05-12 07:16:57 51°14.644 2°44.835 265.6 12.6 262 15.8
2004-05-12 07:17:01 51°14.642 2°44.814 266.3 12.5 261 16.2
2004-05-12 07:17:07 51°14.638 2°44.781 265.5 12.6 259 15.9
2004-05-12 07:17:13 51°14.636 2°44.748 264.6 12.6 259 16
2004-05-12 07:17:18 51°14.632 2°44.721 266.3 12.5 259 16.4
2004-05-12 07:17:23 51°14.631 2°44.693 265.5 12.6 263 16.4
2004-05-12 07:17:26 51°14.629 2°44.676 266.3 12.6 261 16.4
2004-05-12 07:17:33 51°14.626 2°44.637 266.4 12.6 260 16.5
2004-05-12 07:17:38 51°14.623 2°44.61 264.8 12.7 263 16.7
2004-05-12 07:17:43 51°14.621 2°44.582 266.4 12.6 265 16.7
2004-05-12 07:17:47 51°14.618 2°44.56 265.6 12.7 258 16.8
2004-05-12 07:17:53 51°14.616 2°44.527 266.4 12.5 263 16.7
2004-05-12 07:17:57 51°14.613 2°44.506 264.9 12.7 261 16.7
2004-05-12 07:18:02 51°14.611 2°44.478 264.1 12.6 261 16.8
2004-05-12 07:18:06 51°14.61 2°44.456 266.5 12.4 264 16.9
2004-05-12 07:18:13 51°14.605 2°44.417 264.7 12.8 262 17
2004-05-12 07:18:18 51°14.603 2°44.39 264.8 12.6 264 17.1
2004-05-12 07:18:23 51°14.6 2°44.363 266.2 12.5 261 17.4
2004-05-12 07:18:27 51°14.598 2°44.341 264.9 12.5 262 17.4
2004-05-12 07:18:33 51°14.595 2°44.307 265.6 12.5 262 17.5
2004-05-12 07:18:38 51°14.592 2°44.28 265.5 12.5 260 17.5
2004-05-12 07:18:42 51°14.59 2°44.258 264.2 12.6 261 17.5
2004-05-12 07:18:48 51°14.587 2°44.225 264.7 12.6 263 17.8
2004-05-12 07:18:53 51°14.584 2°44.198 265.9 12.5 265 17.8
2004-05-12 07:18:58 51°14.582 2°44.17 264.4 12.8 263 17.7
2004-05-12 07:19:03 51°14.58 2°44.142 266.3 12.6 265 17.9
2004-05-12 07:19:08 51°14.578 2°44.115 266.7 12.5 263 18.2
2004-05-12 07:19:13 51°14.574 2°44.088 266.1 12.5 264 18
2004-05-12 07:19:17 51°14.574 2°44.065 265.3 12.5 268 18.2
2004-05-12 07:19:23 51°14.57 2°44.033 267.5 12.4 259 18.1
2004-05-12 07:19:28 51°14.57 2°44.004 265.2 12.8 268 18.4
2004-05-12 07:19:33 51°14.566 2°43.978 267.8 12.5 258 18.5
2004-05-12 07:19:37 51°14.564 2°43.956 265.6 12.4 263 18.3
2004-05-12 07:19:43 51°14.561 2°43.923 265.5 12.6 263 18.2
2004-05-12 07:19:47 51°14.559 2°43.901 265.6 12.4 262 17.8
2004-05-12 07:19:53 51°14.556 2°43.869 265.6 12.4 262 18.4
2004-05-12 07:19:57 51°14.555 2°43.847 265.1 12.5 264 17.9
2004-05-12 07:20:03 51°14.552 2°43.813 266 12.7 261 18.2
2004-05-12 07:20:07 51°14.551 2°43.791 265.6 12.4 263 18.7
2004-05-12 07:20:13 51°14.547 2°43.759 265.4 12.5 260 18.6
2004-05-12 07:20:17 51°14.545 2°43.737 265 12.6 262 18.7
2004-05-12 07:20:23 51°14.542 2°43.704 264.6 12.6 262 18.4
2004-05-12 07:20:27 51°14.541 2°43.682 266.1 12.5 265 18.1
2004-05-12 07:20:33 51°14.538 2°43.648 264.8 12.6 262 18.1
2004-05-12 07:20:37 51°14.535 2°43.626 266.2 12.8 260 18.2
2004-05-12 07:20:43 51°14.534 2°43.593 266.1 12.5 266 18.3
2004-05-12 07:20:47 51°14.53 2°43.572 265.9 12.3 260 18.3
2004-05-12 07:20:53 51°14.528 2°43.538 264.3 12.6 260 18.1
2004-05-12 07:20:57 51°14.525 2°43.517 265.6 12.4 259 18.5
2004-05-12 07:21:03 51°14.521 2°43.484 263.7 12.4 259 18.3
2004-05-12 07:21:07 51°14.52 2°43.462 263.2 12.7 262 18.8
2004-05-12 07:21:13 51°14.516 2°43.429 264.7 12.7 260 18.8
2004-05-12 07:21:18 51°14.514 2°43.402 265.1 12.5 262 18.9
2004-05-12 07:21:23 51°14.512 2°43.374 265.1 12.5 262 19.1
2004-05-12 07:21:27 51°14.509 2°43.352 264.9 12.8 261 18.8
2004-05-12 07:21:33 51°14.507 2°43.319 266 12.8 264 18.9
2004-05-12 07:21:38 51°14.504 2°43.291 265.6 12.6 261 19
2004-05-12 07:21:43 51°14.502 2°43.263 265.5 12.8 264 18.8
2004-05-12 07:21:47 51°14.5 2°43.241 266.2 12.7 261 19.3
2004-05-12 07:21:53 51°14.497 2°43.208 265 12.7 260 19.4
2004-05-12 07:21:57 51°14.495 2°43.186 265.5 12.7 259 19.2
2004-05-12 07:22:02 51°14.493 2°43.158 265.4 12.7 264 19.3
2004-05-12 07:22:07 51°14.489 2°43.13 265.1 12.7 259 19.4
2004-05-12 07:22:13 51°14.487 2°43.097 266.3 12.5 262 19.3
2004-05-12 07:22:17 51°14.485 2°43.075 265.9 12.6 259 19.4
2004-05-12 07:22:23 51°14.482 2°43.042 264.6 12.6 262 19.5
2004-05-12 07:22:27 51°14.48 2°43.02 264.7 12.5 263 19.5
2004-05-12 07:22:33 51°14.477 2°42.987 265.4 12.5 261 19.7
2004-05-12 07:22:38 51°14.474 2°42.96 266.3 12.6 259 19.4
2004-05-12 07:22:43 51°14.472 2°42.932 264.7 12.6 263 19.6
2004-05-12 07:22:47 51°14.469 2°42.911 264.9 12.7 259 19.6
2004-05-12 07:22:53 51°14.467 2°42.877 265.9 12.6 263 19.7
2004-05-12 07:22:58 51°14.464 2°42.85 264.9 12.6 261 19.7
2004-05-12 07:23:02 51°14.462 2°42.828 265.3 12.6 263 19.7
2004-05-12 07:23:07 51°14.46 2°42.8 265.6 12.6 261 19.8
2004-05-12 07:23:13 51°14.456 2°42.767 264.9 12.6 260 19.8
2004-05-12 07:23:17 51°14.454 2°42.745 265.5 12.6 260 19.4
2004-05-12 07:23:23 51°14.451 2°42.712 264.4 12.6 260 19.5
2004-05-12 07:23:27 51°14.448 2°42.69 264.9 12.7 262 19.5
2004-05-12 07:23:33 51°14.446 2°42.657 265 12.6 262 19.6
2004-05-12 07:23:37 51°14.444 2°42.634 264.9 12.7 264 19.7
2004-05-12 07:23:43 51°14.441 2°42.601 266.2 12.6 262 19.6
2004-05-12 07:23:48 51°14.44 2°42.573 266.3 12.6 265 19.7
2004-05-12 07:23:53 51°14.436 2°42.546 266.3 12.6 263 19.5
2004-05-12 07:23:58 51°14.434 2°42.518 265 12.7 261 19.6
2004-05-12 07:24:03 51°14.432 2°42.49 265.1 12.7 263 19.5
2004-05-12 07:24:05 51°14.43 2°42.479 265 12.7 261 19.5
2004-05-12 07:24:13 51°14.427 2°42.435 266.3 12.7 263 19.3
2004-05-12 07:24:17 51°14.425 2°42.412 265.5 12.7 263 19.4
2004-05-12 07:24:23 51°14.422 2°42.379 265.2 12.8 262 19.4
2004-05-12 07:24:26 51°14.42 2°42.362 265.7 12.8 263 19.5
2004-05-12 07:24:33 51°14.417 2°42.323 266.2 12.7 263 19.8
2004-05-12 07:24:38 51°14.414 2°42.294 264.9 12.9 261 19.6
2004-05-12 07:24:43 51°14.414 2°42.267 266.3 12.9 265 19.6
2004-05-12 07:24:47 51°14.41 2°42.245 267.3 12.6 259 19.5
2004-05-12 07:24:53 51°14.408 2°42.211 265.5 12.8 262 19.5
2004-05-12 07:24:58 51°14.405 2°42.184 265 12.6 258 19.1
2004-05-12 07:25:03 51°14.403 2°42.156 264.9 12.7 263 19.3
2004-05-12 07:25:07 51°14.4 2°42.134 264.7 12.8 260 19.1
2004-05-12 07:25:13 51°14.397 2°42.1 264.7 12.7 262 19
2004-05-12 07:25:17 51°14.396 2°42.078 265.4 12.6 264 19.1
2004-05-12 07:25:23 51°14.392 2°42.045 265.9 12.7 262 18.9
2004-05-12 07:25:28 51°14.392 2°42.017 265.4 12.7 265 19.1
2004-05-12 07:25:31 51°14.388 2°42.001 266.3 12.8 254 19.2
2004-05-12 07:25:37 51°14.386 2°41.967 265.7 12.5 263 18.7
2004-05-12 07:25:43 51°14.381 2°41.935 264.5 12.6 257 18.5
2004-05-12 07:25:47 51°14.381 2°41.913 264.7 12.7 264 18.4
2004-05-12 07:25:53 51°14.376 2°41.879 264.4 12.7 259 18.4
2004-05-12 07:25:58 51°14.375 2°41.852 265.9 12.4 264 18.4
2004-05-12 07:26:03 51°14.371 2°41.825 265.4 12.4 258 18.2
2004-05-12 07:26:07 51°14.37 2°41.803 263.1 12.7 265 18.2
2004-05-12 07:26:13 51°14.366 2°41.77 265.3 12.6 259 18.2
2004-05-12 07:26:18 51°14.363 2°41.742 264.9 12.6 261 18.1
2004-05-12 07:26:23 51°14.361 2°41.714 264.1 12.7 261 17.8
2004-05-12 07:26:27 51°14.359 2°41.692 264.7 12.7 263 17.6
2004-05-12 07:26:33 51°14.355 2°41.659 264.7 12.7 260 17.3
2004-05-12 07:26:37 51°14.354 2°41.636 265 12.8 264 15.5
2004-05-12 07:26:43 51°14.35 2°41.603 265.1 12.8 264 16.8
2004-05-12 07:26:47 51°14.349 2°41.581 265.7 12.7 263 17
2004-05-12 07:26:53 51°14.345 2°41.547 265.5 12.9 259 17
2004-05-12 07:26:57 51°14.345 2°41.525 266.9 12.6 265 17.1
2004-05-12 07:27:02 51°14.34 2°41.497 265.7 12.8 256 16.6
2004-05-12 07:27:07 51°14.339 2°41.469 264 13 264 16.8
2004-05-12 07:27:13 51°14.336 2°41.436 266.9 12.6 261 16.5
2004-05-12 07:27:17 51°14.334 2°41.413 264.1 12.8 264 16.7
2004-05-12 07:27:22 51°14.332 2°41.386 266.1 12.6 263 16.5
2004-05-12 07:27:27 51°14.328 2°41.358 264.8 12.8 259 16.4
2004-05-12 07:27:33 51°14.327 2°41.324 264.2 12.6 266 16.6
2004-05-12 07:27:38 51°14.322 2°41.297 266.3 12.7 257 16.5
2004-05-12 07:27:42 51°14.321 2°41.274 263.4 12.9 264 16.4
2004-05-12 07:27:47 51°14.319 2°41.246 266.2 12.8 264 16.4
2004-05-12 07:27:53 51°14.317 2°41.212 265.9 12.8 266 16.4
2004-05-12 07:27:58 51°14.315 2°41.184 266.4 12.7 263 16.3
2004-05-12 07:28:03 51°14.314 2°41.156 267 12.8 265 16.5
2004-05-12 07:28:07 51°14.311 2°41.134 267.2 12.7 260 16.3
2004-05-12 07:28:13 51°14.31 2°41.1 266.7 12.7 266 16.7
2004-05-12 07:28:17 51°14.307 2°41.078 266.3 12.8 259 16.7
2004-05-12 07:28:22 51°14.306 2°41.05 267 12.7 268 16.9
2004-05-12 07:28:27 51°14.302 2°41.023 266.7 12.6 259 17
2004-05-12 07:28:33 51°14.301 2°40.988 264.2 13.1 266 16.5
2004-05-12 07:28:35 51°14.3 2°40.977 266.8 12.5 260 15.9
2004-05-12 07:28:43 51°14.296 2°40.933 266.5 12.8 264 15.9
2004-05-12 07:28:48 51°14.295 2°40.905 265.7 12.8 267 16
2004-05-12 07:28:53 51°14.292 2°40.877 268.5 12.8 267 16.3
2004-05-12 07:28:58 51°14.291 2°40.849 265.5 12.7 267 16.5
2004-05-12 07:29:02 51°14.289 2°40.827 268 12.6 264 16.3
2004-05-12 07:29:07 51°14.287 2°40.798 266.7 12.8 267 16.6
2004-05-12 07:29:13 51°14.285 2°40.764 267.6 12.8 267 16.7
2004-05-12 07:29:17 51°14.283 2°40.742 266.3 13 265 16.7
2004-05-12 07:29:21 51°14.283 2°40.719 267.8 12.8 265 16.4
2004-05-12 07:29:26 51°14.28 2°40.692 267.1 12.8 262 16
2004-05-12 07:29:33 51°14.277 2°40.652 266.7 12.8 265 15.9
2004-05-12 07:29:37 51°14.277 2°40.629 268.6 12.7 264 15.5
2004-05-12 07:29:43 51°14.274 2°40.595 267.5 12.9 264 15.2
2004-05-12 07:29:45 51°14.273 2°40.584 266.7 12.9 264 15.2
2004-05-12 07:29:53 51°14.271 2°40.54 267.3 12.7 265 15.6
2004-05-12 07:29:57 51°14.268 2°40.517 267.1 12.8 262 15.6
2004-05-12 07:30:02 51°14.268 2°40.489 267.8 12.8 267 15.8
2004-05-12 07:30:06 51°14.265 2°40.467 266.5 12.8 261 16.2
2004-05-12 07:30:13 51°14.262 2°40.427 266.6 12.9 266 16.5
2004-05-12 07:30:17 51°14.262 2°40.404 267.5 12.6 263 16.4
2004-05-12 07:30:23 51°14.259 2°40.371 266.6 12.8 264 16.4
2004-05-12 07:30:27 51°14.257 2°40.348 267.3 12.8 264 16.8
2004-05-12 07:30:33 51°14.254 2°40.314 267.8 12.9 262 16.2
2004-05-12 07:30:38 51°14.254 2°40.286 266.2 12.8 269 16.2
2004-05-12 07:30:43 51°14.251 2°40.259 268.1 12.6 266 15.9
2004-05-12 07:30:47 51°14.249 2°40.236 266.8 12.6 266 16.1
2004-05-12 07:30:53 51°14.247 2°40.203 267.8 12.7 268 15.6
2004-05-12 07:30:57 51°14.245 2°40.18 265.9 13 265 14.8
2004-05-12 07:31:03 51°14.243 2°40.147 267.2 13 265 13.6
2004-05-12 07:31:07 51°14.242 2°40.125 267.5 12.5 262 14.7
2004-05-12 07:31:13 51°14.239 2°40.092 266.3 12.6 262 15.6
2004-05-12 07:31:17 51°14.238 2°40.069 266.2 13.1 265 16
2004-05-12 07:31:23 51°14.235 2°40.035 267.6 12.9 263 16.1
2004-05-12 07:31:27 51°14.234 2°40.013 267.3 12.5 265 16
2004-05-12 07:31:33 51°14.232 2°39.979 266.5 12.7 263 15.8
2004-05-12 07:31:38 51°14.23 2°39.951 267.6 12.9 265 15.9
2004-05-12 07:31:43 51°14.228 2°39.923 267.9 12.7 265 15.7
2004-05-12 07:31:46 51°14.226 2°39.906 266.2 12.8 262 15.6
2004-05-12 07:31:53 51°14.224 2°39.867 267.3 12.9 266 15.3
2004-05-12 07:31:57 51°14.222 2°39.845 266.3 12.7 263 15.4
2004-05-12 07:32:03 51°14.219 2°39.811 265.9 12.7 263 15.3
2004-05-12 07:32:07 51°14.218 2°39.788 267 13 265 15.2
2004-05-12 07:32:13 51°14.215 2°39.754 266.8 12.9 262 15.5
2004-05-12 07:32:17 51°14.214 2°39.732 268.1 12.6 265 15.7
2004-05-12 07:32:23 51°14.211 2°39.698 267.5 12.7 262 15.6
2004-05-12 07:32:28 51°14.211 2°39.669 266.7 13 267 15.6
2004-05-12 07:32:33 51°14.209 2°39.641 268.8 13.1 266 15.6
2004-05-12 07:32:37 51°14.208 2°39.618 268.5 12.6 264 15.6
2004-05-12 07:32:43 51°14.206 2°39.585 267.6 12.7 265 15.5
2004-05-12 07:32:45 51°14.204 2°39.574 267 13.1 266 15.5
2004-05-12 07:32:53 51°14.202 2°39.528 268.8 13 263 15.4
2004-05-12 07:32:57 51°14.201 2°39.505 267.5 12.8 267 15.2
2004-05-12 07:33:01 51°14.199 2°39.482 267.9 12.9 265 15
2004-05-12 07:33:07 51°14.198 2°39.449 267.5 12.8 266 15.1
2004-05-12 07:33:13 51°14.194 2°39.415 267.7 12.8 264 15.4
2004-05-12 07:33:17 51°14.194 2°39.392 266.1 12.8 264 15.4
2004-05-12 07:33:23 51°14.19 2°39.359 266.2 12.7 261 15.5
2004-05-12 07:33:28 51°14.186 2°39.331 264.8 12.8 257 15.3
2004-05-12 07:33:33 51°14.184 2°39.304 262.6 12.6 260 15.3
2004-05-12 07:33:38 51°14.179 2°39.276 262.7 12.7 256 15.3
2004-05-12 07:33:43 51°14.178 2°39.248 261.9 12.7 261 15.3
2004-05-12 07:33:47 51°14.173 2°39.226 263.3 13 257 15.3
2004-05-12 07:33:53 51°14.171 2°39.192 263.8 12.9 264 15.3
2004-05-12 07:33:58 51°14.167 2°39.165 264.6 12.4 256 15.1
2004-05-12 07:34:03 51°14.164 2°39.137 261.9 12.8 260 13.9
2004-05-12 07:34:07 51°14.161 2°39.115 261.9 13 259 13.8
2004-05-12 07:34:13 51°14.158 2°39.081 263.2 13 260 13.8
2004-05-12 07:34:17 51°14.155 2°39.059 263.5 12.6 259 14
2004-05-12 07:34:23 51°14.151 2°39.026 262.2 12.9 259 14.4
2004-05-12 07:34:27 51°14.149 2°39.003 263 13 263 14.2
2004-05-12 07:34:33 51°14.146 2°38.969 265 12.8 259 14.3
2004-05-12 07:34:37 51°14.144 2°38.946 263.8 13 262 14.6
2004-05-12 07:34:43 51°14.141 2°38.912 263.7 13.1 262 14.7
2004-05-12 07:34:48 51°14.138 2°38.884 265.1 12.8 261 12.9
2004-05-12 07:34:53 51°14.135 2°38.856 264.9 12.9 261 12.8
2004-05-12 07:34:58 51°14.133 2°38.828 263.9 12.9 262 13.8
2004-05-12 07:35:02 51°14.13 2°38.806 263.6 12.8 258 14
2004-05-12 07:35:05 51°14.128 2°38.789 262.7 12.8 259 14.7
2004-05-12 07:35:13 51°14.123 2°38.744 262.7 12.9 261 15
2004-05-12 07:35:17 51°14.121 2°38.721 263.8 12.8 261 15.4
2004-05-12 07:35:22 51°14.117 2°38.694 263.7 12.9 258 15.4
2004-05-12 07:35:27 51°14.115 2°38.666 263.6 12.7 262 15.9
2004-05-12 07:35:33 51°14.11 2°38.633 262.3 12.6 257 16.2
2004-05-12 07:35:37 51°14.108 2°38.611 262.7 12.7 259 16.3
2004-05-12 07:35:42 51°14.104 2°38.583 261.8 12.8 258 16.8
2004-05-12 07:35:47 51°14.1 2°38.556 260.4 12.9 256 17.2
2004-05-12 07:35:53 51°14.095 2°38.522 260.1 13 255 17.6
2004-05-12 07:35:57 51°14.093 2°38.501 261.4 12.8 259 17.5
2004-05-12 07:36:03 51°14.086 2°38.468 260.3 13 254 17.9
2004-05-12 07:36:05 51°14.085 2°38.456 259.8 13 260 17.7
2004-05-12 07:36:13 51°14.077 2°38.413 261 12.7 255 18.1
2004-05-12 07:36:18 51°14.074 2°38.385 258 13 258 18.1
2004-05-12 07:36:23 51°14.069 2°38.357 259 13 258 18.5
2004-05-12 07:36:27 51°14.066 2°38.335 260.1 13 258 18.5
2004-05-12 07:36:33 51°14.061 2°38.302 260.2 12.9 256 18.8
2004-05-12 07:36:38 51°14.055 2°38.275 258.7 12.8 254 18.9
2004-05-12 07:36:43 51°14.048 2°38.249 256.8 12.9 249 18.8
2004-05-12 07:36:48 51°14.043 2°38.222 254.4 12.7 250 18.8
2004-05-12 07:36:53 51°14.035 2°38.197 251.8 12.7 245 19
2004-05-12 07:36:58 51°14.029 2°38.17 251.9 12.8 248 19.2
2004-05-12 07:37:03 51°14.022 2°38.144 250.6 13.1 244 19.1
2004-05-12 07:37:08 51°14.016 2°38.117 252.3 12.4 248 18.5
2004-05-12 07:37:13 51°14.009 2°38.092 251.8 12.5 243 18.6
2004-05-12 07:37:17 51°14.004 2°38.07 250.9 12.8 251 18.5
2004-05-12 07:37:23 51°13.995 2°38.04 252.7 12.6 245 19
2004-05-12 07:37:27 51°13.991 2°38.019 250.8 12.6 248 19.5
2004-05-12 07:37:33 51°13.981 2°37.989 251.1 12.9 242 19.3
2004-05-12 07:37:38 51°13.977 2°37.962 251.8 12.5 254 19.1
2004-05-12 07:37:42 51°13.968 2°37.943 250.9 12.8 238 18.2
2004-05-12 07:37:45 51°13.966 2°37.926 250.1 12.8 254 15.8
2004-05-12 07:37:53 51°13.954 2°37.886 251.1 12.4 243 16.4
2004-05-12 07:37:57 51°13.95 2°37.865 249.3 12.7 250 17.6
2004-05-12 07:38:03 51°13.94 2°37.835 251.1 12.8 241 18.5
2004-05-12 07:38:06 51°13.936 2°37.82 249.2 12.6 245 18.7
2004-05-12 07:38:13 51°13.922 2°37.786 245.5 13.1 241 19.1
2004-05-12 07:38:18 51°13.914 2°37.761 244.5 13 241 19.4
2004-05-12 07:38:23 51°13.905 2°37.737 244.6 12.8 239 19.8
2004-05-12 07:38:25 51°13.901 2°37.727 242.6 12.8 237 19.9
2004-05-12 07:38:33 51°13.886 2°37.689 243.5 12.8 243 19.7
2004-05-12 07:38:38 51°13.876 2°37.665 241.7 13 238 20.1
2004-05-12 07:38:43 51°13.866 2°37.641 240.9 12.9 237 20.1
2004-05-12 07:38:47 51°13.859 2°37.622 241.4 13 236 20.1
2004-05-12 07:38:53 51°13.848 2°37.593 241.3 12.7 239 20.4
2004-05-12 07:38:57 51°13.839 2°37.575 241.6 12.9 235 20
2004-05-12 07:39:03 51°13.829 2°37.545 240.3 13.2 240 20.2
2004-05-12 07:39:08 51°13.819 2°37.522 243.4 12.6 237 19.8
2004-05-12 07:39:13 51°13.811 2°37.497 242.8 12.6 239 19.7
2004-05-12 07:39:18 51°13.802 2°37.473 242.7 12.7 240 19.8
2004-05-12 07:39:22 51°13.795 2°37.454 244.2 12.7 241 19.8
2004-05-12 07:39:25 51°13.79 2°37.439 245.1 12.8 243 20
2004-05-12 07:39:33 51°13.778 2°37.398 247.6 12.8 245 20.3
2004-05-12 07:39:37 51°13.772 2°37.377 248.6 12.6 247 20.3
2004-05-12 07:39:43 51°13.762 2°37.347 249.7 12.7 242 19.8
2004-05-12 07:39:45 51°13.76 2°37.337 247.8 12.9 247 19.7
2004-05-12 07:39:53 51°13.749 2°37.296 250.6 12.5 244 20.1
2004-05-12 07:39:58 51°13.741 2°37.27 250.2 12.8 244 20.4
2004-05-12 07:40:03 51°13.736 2°37.244 249.7 12.7 252 20.5
2004-05-12 07:40:07 51°13.729 2°37.225 252 12.3 244 20.4
2004-05-12 07:40:13 51°13.721 2°37.193 249.5 13 246 20.5
2004-05-12 07:40:17 51°13.716 2°37.172 249.6 12.8 249 20.5
2004-05-12 07:40:23 51°13.707 2°37.142 251.1 12.6 245 20.6
2004-05-12 07:40:27 51°13.701 2°37.121 249.9 12.8 246 19.9
2004-05-12 07:40:33 51°13.693 2°37.089 250.9 13 245 19.9
2004-05-12 07:40:38 51°13.686 2°37.063 250.9 12.8 247 20
2004-05-12 07:40:43 51°13.679 2°37.038 250.7 12.6 248 20
2004-05-12 07:40:48 51°13.672 2°37.011 249.6 13.4 247 20.2
2004-05-12 07:40:53 51°13.666 2°36.983 251.4 13.4 251 20.1
2004-05-12 07:40:58 51°13.659 2°36.957 252.2 12.7 248 20.3
2004-05-12 07:41:03 51°13.652 2°36.931 251.2 12.8 248 20.7
2004-05-12 07:41:06 51°13.649 2°36.915 251.7 12.9 249 20.4
2004-05-12 07:41:13 51°13.639 2°36.879 251.8 12.4 248 20.4
2004-05-12 07:41:17 51°13.633 2°36.859 250.4 12.9 243 20.4
2004-05-12 07:41:23 51°13.626 2°36.827 249.1 12.9 251 20.7
2004-05-12 07:41:27 51°13.619 2°36.808 251.8 12.3 245 20.6
2004-05-12 07:41:31 51°13.613 2°36.787 249.1 12.6 244 20.2
2004-05-12 07:41:37 51°13.606 2°36.756 249.5 12.8 250 20.5
2004-05-12 07:41:43 51°13.597 2°36.725 251.3 12.5 246 20.6
2004-05-12 07:41:47 51°13.592 2°36.705 250.2 12.6 246 20.6
2004-05-12 07:41:53 51°13.583 2°36.673 251.3 13 246 20.6
2004-05-12 07:41:58 51°13.578 2°36.646 252.5 12.7 252 20.1
2004-05-12 07:42:03 51°13.57 2°36.62 252.8 12.8 246 20
2004-05-12 07:42:07 51°13.565 2°36.599 251.1 12.9 248 20.4
2004-05-12 07:42:13 51°13.558 2°36.567 251.5 12.9 250 20.4
2004-05-12 07:42:17 51°13.552 2°36.546 251.3 12.9 249 19.2
2004-05-12 07:42:23 51°13.546 2°36.513 253.1 12.9 253 19.1
2004-05-12 07:42:27 51°13.541 2°36.492 254 13 249 19.7
2004-05-12 07:42:33 51°13.534 2°36.46 254.3 13 252 19.7
2004-05-12 07:42:37 51°13.529 2°36.439 253.8 12.9 247 20
2004-05-12 07:42:43 51°13.522 2°36.406 252 13 252 19.5
2004-05-12 07:42:48 51°13.515 2°36.38 254.1 12.7 249 19.4
2004-05-12 07:42:53 51°13.51 2°36.354 254.5 12.5 248 19.7
2004-05-12 07:42:58 51°13.502 2°36.328 252.3 13 246 19.4
2004-05-12 07:43:03 51°13.497 2°36.301 252.3 13 252 19.5
2004-05-12 07:43:07 51°13.491 2°36.281 252.7 12.4 245 19.7
2004-05-12 07:43:13 51°13.484 2°36.249 250.4 12.7 247 19.2
2004-05-12 07:43:18 51°13.478 2°36.222 252.2 12.8 251 19.4
2004-05-12 07:43:23 51°13.471 2°36.197 251.9 12.7 248 19.5
2004-05-12 07:43:27 51°13.466 2°36.176 251.9 12.6 251 19.1
2004-05-12 07:43:33 51°13.458 2°36.145 250.7 12.9 247 19.2
2004-05-12 07:43:38 51°13.45 2°36.119 251.1 12.8 245 19.1
2004-05-12 07:43:43 51°13.445 2°36.093 250.2 12.5 251 19.4
2004-05-12 07:43:47 51°13.439 2°36.072 251.5 12.6 249 18.9
2004-05-12 07:43:53 51°13.432 2°36.039 250.4 13.1 246 19.2
2004-05-12 07:43:57 51°13.426 2°36.019 252.9 12.8 245 19.2
2004-05-12 07:44:03 51°13.419 2°35.987 252 12.7 252 19
2004-05-12 07:44:08 51°13.412 2°35.96 251.8 13.2 248 19.2
2004-05-12 07:44:13 51°13.407 2°35.933 252.2 13.2 252 19.2
2004-05-12 07:44:18 51°13.401 2°35.906 254.2 12.7 249 19.4
2004-05-12 07:44:22 51°13.396 2°35.885 252.8 13.1 249 19.3
2004-05-12 07:44:28 51°13.389 2°35.851 252.5 13.4 252 19.3
2004-05-12 07:44:33 51°13.383 2°35.825 254 13.2 249 19.5
2004-05-12 07:44:37 51°13.378 2°35.804 254.3 12.7 248 19.5
2004-05-12 07:44:43 51°13.37 2°35.77 251.4 13.3 249 19.5
2004-05-12 07:44:45 51°13.368 2°35.759 253 13.4 253 19.4
2004-05-12 07:44:53 51°13.359 2°35.716 254.9 12.7 251 19.6
2004-05-12 07:44:57 51°13.354 2°35.694 253.5 12.9 249 19.6
2004-05-12 07:45:01 51°13.348 2°35.673 251.7 13.1 248 19.3
2004-05-12 07:45:07 51°13.341 2°35.64 252.2 13.1 248 19.1
2004-05-12 07:45:13 51°13.332 2°35.608 251.5 13 247 19.3
2004-05-12 07:45:18 51°13.326 2°35.58 250.5 13.1 252 19.6
2004-05-12 07:45:23 51°13.318 2°35.555 252.2 12.9 246 19.4
2004-05-12 07:45:27 51°13.313 2°35.532 249.5 13.2 248 19.2
2004-05-12 07:45:33 51°13.306 2°35.5 250.9 13.2 249 19.1
2004-05-12 07:45:37 51°13.3 2°35.48 251.1 12.8 244 19.3
2004-05-12 07:45:43 51°13.293 2°35.448 249.9 12.8 250 19.4
2004-05-12 07:45:48 51°13.284 2°35.423 250.1 13 245 19.3
2004-05-12 07:45:53 51°13.278 2°35.396 248.6 13.1 247 19.3
2004-05-12 07:45:58 51°13.271 2°35.37 251.1 12.7 245 19.3
2004-05-12 07:46:03 51°13.263 2°35.344 248.8 12.7 241 19.2
2004-05-12 07:46:07 51°13.258 2°35.324 249.6 12.6 249 18.9
2004-05-12 07:46:13 51°13.249 2°35.292 247.8 13 241 19.1
2004-05-12 07:46:18 51°13.241 2°35.267 249 12.9 244 19
2004-05-12 07:46:23 51°13.235 2°35.241 249.6 12.7 245 19.2
2004-05-12 07:46:27 51°13.229 2°35.221 249.3 12.6 247 18.9
2004-05-12 07:46:33 51°13.221 2°35.189 248 13 250 19.1
2004-05-12 07:46:38 51°13.214 2°35.163 249.8 12.7 246 19
2004-05-12 07:46:43 51°13.207 2°35.136 249.8 12.9 247 19
2004-05-12 07:46:48 51°13.201 2°35.11 251 12.9 249 19.3
2004-05-12 07:46:53 51°13.193 2°35.084 250.4 13.1 249 19
2004-05-12 07:46:58 51°13.187 2°35.057 249.3 12.9 247 19.1
2004-05-12 07:47:03 51°13.18 2°35.031 249.6 12.9 246 19.1
2004-05-12 07:47:08 51°13.173 2°35.004 250.4 13 249 19
2004-05-12 07:47:13 51°13.166 2°34.977 250.5 13.1 247 19
2004-05-12 07:47:18 51°13.159 2°34.95 250.2 13.2 247 19
2004-05-12 07:47:22 51°13.153 2°34.929 249.6 13.2 246 19.3
2004-05-12 07:47:28 51°13.146 2°34.897 250.7 12.9 249 19.4
2004-05-12 07:47:33 51°13.139 2°34.871 250.3 13.2 249 19.5
2004-05-12 07:47:37 51°13.134 2°34.848 250.3 13.5 250 19.4
2004-05-12 07:47:43 51°13.127 2°34.815 251.4 13.3 251 19.6
2004-05-12 07:47:47 51°13.121 2°34.794 253.3 12.8 252 19.5
2004-05-12 07:47:53 51°13.113 2°34.762 250.4 13.2 248 19.6
2004-05-12 07:47:58 51°13.107 2°34.735 252 13.1 248 19.4
2004-05-12 07:48:02 51°13.101 2°34.713 250.3 13.3 246 19.3
2004-05-12 07:48:07 51°13.094 2°34.685 250 13.5 249 19.1
2004-05-12 07:48:13 51°13.086 2°34.653 251.1 13.3 248 19.6
2004-05-12 07:48:17 51°13.081 2°34.632 250.8 12.8 249 19.4
2004-05-12 07:48:23 51°13.073 2°34.599 250.5 13 250 19.3
2004-05-12 07:48:27 51°13.067 2°34.577 250.2 13.7 247 18.6
2004-05-12 07:48:33 51°13.06 2°34.544 252 12.7 250 19.3
2004-05-12 07:48:38 51°13.052 2°34.519 251.9 12.5 244 19.3
2004-05-12 07:48:43 51°13.046 2°34.492 248.9 12.7 246 19
2004-05-12 07:48:47 51°13.04 2°34.471 249.1 13.2 247 18.9
2004-05-12 07:48:53 51°13.031 2°34.438 249 13.3 247 18.8
2004-05-12 07:48:57 51°13.027 2°34.417 251.4 12.6 248 18.7
2004-05-12 07:49:03 51°13.017 2°34.387 249.6 13 243 19.1
2004-05-12 07:49:08 51°13.012 2°34.359 249.7 12.9 252 18.7
2004-05-12 07:49:13 51°13.003 2°34.334 250.4 13.1 242 18.9
2004-05-12 07:49:18 51°12.998 2°34.306 249.3 13 252 18.8
2004-05-12 07:49:23 51°12.991 2°34.281 251.5 12.8 250 18.7
2004-05-12 07:49:26 51°12.988 2°34.265 250.5 12.8 250 18.4
2004-05-12 07:49:33 51°12.979 2°34.228 251.6 12.9 250 18.6
2004-05-12 07:49:37 51°12.973 2°34.206 250.1 13.2 248 18.7
2004-05-12 07:49:43 51°12.965 2°34.174 250.1 13.2 248 18.7
2004-05-12 07:49:48 51°12.958 2°34.148 251.1 12.8 250 18.3
2004-05-12 07:49:53 51°12.952 2°34.121 249 12.9 247 18.1
2004-05-12 07:49:57 51°12.946 2°34.1 250.2 13.2 246 18.1
2004-05-12 07:50:03 51°12.939 2°34.067 250.5 13.1 251 18.3
2004-05-12 07:50:08 51°12.931 2°34.041 251.4 13.1 244 18
2004-05-12 07:50:13 51°12.926 2°34.013 249.7 13.3 245 17.9
2004-05-12 07:50:18 51°12.918 2°33.987 252.5 12.9 245 17.7
2004-05-12 07:50:23 51°12.912 2°33.959 250.2 13.4 249 17.7
2004-05-12 07:50:25 51°12.91 2°33.947 251.9 13.3 252 17.4
2004-05-12 07:50:33 51°12.899 2°33.905 250.2 13 244 17.3
2004-05-12 07:50:37 51°12.893 2°33.884 250.9 13.1 247 17.2
2004-05-12 07:50:43 51°12.886 2°33.851 251.3 13 251 17.1
2004-05-12 07:50:47 51°12.88 2°33.83 251.1 13.2 248 16.7
2004-05-12 07:50:53 51°12.874 2°33.796 251.1 13.3 249 16.7
2004-05-12 07:50:56 51°12.869 2°33.781 253.1 13 246 16.6
2004-05-12 07:51:03 51°12.86 2°33.743 252.1 13.1 251 16.7
2004-05-12 07:51:05 51°12.857 2°33.733 250.5 12.9 247 16.7
2004-05-12 07:51:13 51°12.846 2°33.691 249.7 12.8 248 16.5
2004-05-12 07:51:17 51°12.84 2°33.67 248.4 13.2 247 16.2
2004-05-12 07:51:23 51°12.833 2°33.637 250 13.1 250 16.4
2004-05-12 07:51:28 51°12.826 2°33.611 251.1 12.8 250 16.7
2004-05-12 07:51:33 51°12.819 2°33.584 251.1 12.8 248 16.8
2004-05-12 07:51:37 51°12.814 2°33.562 249.8 13.4 250 16.9
2004-05-12 07:51:43 51°12.807 2°33.529 252.3 13.1 251 17
2004-05-12 07:51:45 51°12.804 2°33.519 251.6 12.8 245 17
2004-05-12 07:51:53 51°12.793 2°33.477 249 13 249 17.2
2004-05-12 07:51:57 51°12.787 2°33.456 250.5 13.1 246 17.3
2004-05-12 07:52:01 51°12.781 2°33.434 249 13.4 247 17.4
2004-05-12 07:52:07 51°12.774 2°33.401 250 13.1 253 17.7
2004-05-12 07:52:13 51°12.765 2°33.37 251.9 12.9 248 17.3
2004-05-12 07:52:18 51°12.759 2°33.343 250.3 12.9 250 17.2
2004-05-12 07:52:23 51°12.751 2°33.317 249.2 13.1 242 17.2
2004-05-12 07:52:27 51°12.747 2°33.295 249 13.1 251 16.9
2004-05-12 07:52:33 51°12.738 2°33.264 249.9 12.9 245 16.6
2004-05-12 07:52:37 51°12.733 2°33.243 250.4 12.9 248 16.4
2004-05-12 07:52:43 51°12.724 2°33.211 249.7 13.1 247 16.8
2004-05-12 07:52:48 51°12.717 2°33.183 249.9 13.5 248 16.9
2004-05-12 07:52:53 51°12.711 2°33.156 250.6 13.3 251 17.1
2004-05-12 07:52:58 51°12.702 2°33.131 250.4 12.9 243 16.9
2004-05-12 07:53:03 51°12.697 2°33.104 249.5 12.9 248 17.7
2004-05-12 07:53:07 51°12.69 2°33.083 248.9 12.9 244 17.7
2004-05-12 07:53:13 51°12.683 2°33.05 249.3 13.1 249 17.8
2004-05-12 07:53:18 51°12.676 2°33.023 250.3 13.4 248 17.6
2004-05-12 07:53:23 51°12.67 2°32.996 251.7 13.3 252 18.3
2004-05-12 07:53:27 51°12.664 2°32.975 251.3 12.9 246 18.1
2004-05-12 07:53:33 51°12.656 2°32.942 249.2 13.2 252 18
2004-05-12 07:53:38 51°12.649 2°32.916 251.8 12.8 246 18.3
2004-05-12 07:53:43 51°12.643 2°32.889 250.2 12.8 250 18.7
2004-05-12 07:53:48 51°12.636 2°32.863 250.6 13 248 18.6
2004-05-12 07:53:53 51°12.63 2°32.835 251.1 13.2 248 18.9
2004-05-12 07:53:58 51°12.623 2°32.809 250.1 12.9 248 19
2004-05-12 07:54:03 51°12.616 2°32.784 250.6 12.7 248 19
2004-05-12 07:54:08 51°12.609 2°32.757 248.3 13 247 19.3
2004-05-12 07:54:13 51°12.602 2°32.73 248.8 13.1 248 19.2
2004-05-12 07:54:18 51°12.595 2°32.704 250.6 12.9 247 19.6
2004-05-12 07:54:22 51°12.589 2°32.684 248.8 13 246 19.5
2004-05-12 07:54:28 51°12.581 2°32.652 251.1 12.9 246 19.6
2004-05-12 07:54:33 51°12.575 2°32.625 250 12.9 247 19.5
2004-05-12 07:54:37 51°12.569 2°32.604 250.3 13 247 19.7
2004-05-12 07:54:42 51°12.563 2°32.577 251.1 12.9 250 19.9
2004-05-12 07:54:47 51°12.555 2°32.552 250.1 13.1 247 19.9
2004-05-12 07:54:53 51°12.548 2°32.519 250.8 13.2 254 20
2004-05-12 07:54:57 51°12.542 2°32.498 250.1 12.8 250 20.2
2004-05-12 07:55:03 51°12.533 2°32.468 250.9 12.7 245 20.5
2004-05-12 07:55:07 51°12.528 2°32.445 247.7 13 246 20.8
2004-05-12 07:55:13 51°12.52 2°32.414 250.2 12.9 251 20.8
2004-05-12 07:55:17 51°12.514 2°32.393 249.6 13.1 247 21.1
2004-05-12 07:55:23 51°12.506 2°32.361 248.7 13.1 247 21.3
2004-05-12 07:55:27 51°12.5 2°32.34 248.9 12.9 247 21.9
2004-05-12 07:55:33 51°12.492 2°32.309 248.9 12.9 247 22.3
2004-05-12 07:55:37 51°12.487 2°32.287 250.3 13.4 247 21.8
2004-05-12 07:55:43 51°12.477 2°32.253 249.7 13.7 247 22.7